createdAt,value
2023-10-06T00:02:21.838Z,10.60
2023-10-06T00:04:49.146Z,10.59
2023-10-06T00:07:15.948Z,10.54
2023-10-06T00:09:44.804Z,10.53
2023-10-06T00:12:14.337Z,10.52
2023-10-06T00:14:41.985Z,10.50
2023-10-06T00:17:20.582Z,10.51
2023-10-06T00:19:52.810Z,10.49
2023-10-06T00:22:19.464Z,10.46
2023-10-06T00:24:48.874Z,10.44
2023-10-06T00:27:15.699Z,10.33
2023-10-06T00:29:50.346Z,10.26
2023-10-06T00:32:22.649Z,10.25
2023-10-06T00:35:09.783Z,10.30
2023-10-06T00:37:40.965Z,10.29
2023-10-06T00:40:21.092Z,10.30
2023-10-06T00:42:52.422Z,10.28
2023-10-06T00:45:18.915Z,10.25
2023-10-06T00:47:45.538Z,10.25
2023-10-06T00:50:13.132Z,10.25
2023-10-06T00:52:41.483Z,10.25
2023-10-06T00:55:11.916Z,10.24
2023-10-06T00:57:38.856Z,10.23
2023-10-06T01:00:21.561Z,10.19
2023-10-06T01:02:49.506Z,10.16
2023-10-06T01:05:20.696Z,10.14
2023-10-06T01:07:47.255Z,10.08
2023-10-06T01:10:29.515Z,10.08
2023-10-06T01:12:57.915Z,10.05
2023-10-06T01:15:30.157Z,9.96
2023-10-06T01:17:58.957Z,9.88
2023-10-06T01:20:42.652Z,9.90
2023-10-06T01:23:20.779Z,9.89
2023-10-06T01:25:47.976Z,9.92
2023-10-06T01:28:14.516Z,9.92
2023-10-06T01:30:41.261Z,9.92
2023-10-06T01:33:08.181Z,9.77
2023-10-06T01:35:43.567Z,9.62
2023-10-06T01:38:21.078Z,9.59
2023-10-06T01:40:57.317Z,9.65
2023-10-06T01:43:24.189Z,9.65
2023-10-06T01:45:52.200Z,9.70
2023-10-06T01:48:21.455Z,9.72
2023-10-06T01:50:50.863Z,9.74
2023-10-06T01:53:21.236Z,9.75
2023-10-06T01:55:57.102Z,9.79
2023-10-06T01:58:23.629Z,9.76
2023-10-06T02:00:50.566Z,9.78
2023-10-06T02:03:22.665Z,9.77
2023-10-06T02:05:49.594Z,9.74
2023-10-06T02:08:22.402Z,9.71
2023-10-06T02:10:51.215Z,9.71
2023-10-06T02:13:22.172Z,9.70
2023-10-06T02:15:59.891Z,9.67
2023-10-06T02:18:36.988Z,9.65
2023-10-06T02:21:17.787Z,9.62
2023-10-06T02:23:45.210Z,9.58
2023-10-06T02:26:13.512Z,9.60
2023-10-06T02:28:49.281Z,9.53
2023-10-06T02:31:17.044Z,9.50
2023-10-06T02:33:49.074Z,9.50
2023-10-06T02:36:24.944Z,9.51
2023-10-06T02:38:52.505Z,9.53
2023-10-06T02:41:21.907Z,9.51
2023-10-06T02:43:53.019Z,9.46
2023-10-06T02:46:24.893Z,9.43
2023-10-06T02:48:51.789Z,9.41
2023-10-06T02:51:30.554Z,9.36
2023-10-06T02:54:10.984Z,9.34
2023-10-06T02:56:38.175Z,9.36
2023-10-06T02:59:21.546Z,9.35
2023-10-06T03:01:53.960Z,9.33
2023-10-06T03:04:26.691Z,9.34
2023-10-06T03:06:55.098Z,9.34
2023-10-06T03:09:22.064Z,9.30
2023-10-06T03:11:50.659Z,9.28
2023-10-06T03:14:25.601Z,9.26
2023-10-06T03:16:52.763Z,9.27
2023-10-06T03:19:25.548Z,9.22
2023-10-06T03:21:57.534Z,9.17
2023-10-06T03:24:32.306Z,9.11
2023-10-06T03:26:59.956Z,9.12
2023-10-06T03:29:45.020Z,9.12
2023-10-06T03:32:20.036Z,9.11
2023-10-06T03:34:48.175Z,9.01
2023-10-06T03:37:26.500Z,8.98
2023-10-06T03:39:54.680Z,9.00
2023-10-06T03:42:21.846Z,9.04
2023-10-06T03:45:06.325Z,9.05
2023-10-06T03:47:32.855Z,9.05
2023-10-06T03:49:59.462Z,9.05
2023-10-06T03:52:26.273Z,9.01
2023-10-06T03:54:57.464Z,8.95
2023-10-06T03:57:24.136Z,8.88
2023-10-06T03:59:50.662Z,8.85
2023-10-06T04:02:17.292Z,8.79
2023-10-06T04:04:43.757Z,8.75
2023-10-06T04:07:10.213Z,8.70
2023-10-06T04:09:36.870Z,8.62
2023-10-06T04:12:03.996Z,8.57
2023-10-06T04:14:33.038Z,8.63
2023-10-06T04:17:02.302Z,8.66
2023-10-06T04:19:28.882Z,8.70
2023-10-06T04:21:55.295Z,8.70
2023-10-06T04:24:21.665Z,8.75
2023-10-06T04:26:48.138Z,8.75
2023-10-06T04:29:17.808Z,8.68
2023-10-06T04:31:47.208Z,8.62
2023-10-06T04:34:15.026Z,8.61
2023-10-06T04:36:41.516Z,8.58
2023-10-06T04:39:12.436Z,8.59
2023-10-06T04:41:42.220Z,8.52
2023-10-06T04:44:08.764Z,8.52
2023-10-06T04:46:36.460Z,8.57
2023-10-06T04:49:03.229Z,8.59
2023-10-06T04:51:29.674Z,8.61
2023-10-06T04:53:56.309Z,8.62
2023-10-06T04:56:23.532Z,8.64
2023-10-06T04:58:50.018Z,8.64
2023-10-06T05:01:17.691Z,8.65
2023-10-06T05:03:45.089Z,8.64
2023-10-06T05:06:22.416Z,8.64
2023-10-06T05:08:50.099Z,8.64
2023-10-06T05:11:18.949Z,8.60
2023-10-06T05:13:48.944Z,8.60
2023-10-06T05:16:15.504Z,8.57
2023-10-06T05:18:42.160Z,8.52
2023-10-06T05:21:08.701Z,8.48
2023-10-06T05:23:38.914Z,8.49
2023-10-06T05:26:09.424Z,8.46
2023-10-06T05:28:38.366Z,8.39
2023-10-06T05:31:08.179Z,8.35
2023-10-06T05:33:34.994Z,8.38
2023-10-06T05:36:10.926Z,8.41
2023-10-06T05:38:38.644Z,8.29
2023-10-06T05:41:08.856Z,8.29
2023-10-06T05:43:35.742Z,8.35
2023-10-06T05:46:04.155Z,8.42
2023-10-06T05:48:31.762Z,8.47
2023-10-06T05:51:06.250Z,8.48
2023-10-06T05:53:39.927Z,8.41
2023-10-06T05:56:09.842Z,8.40
2023-10-06T05:58:38.699Z,8.40
2023-10-06T06:01:12.142Z,8.39
2023-10-06T06:03:47.439Z,8.48
2023-10-06T06:06:23.602Z,8.55
2023-10-06T06:08:52.198Z,8.62
2023-10-06T06:11:18.791Z,8.62
2023-10-06T06:13:52.903Z,8.57
2023-10-06T06:16:22.670Z,8.59
2023-10-06T06:18:50.087Z,8.43
2023-10-06T06:21:17.585Z,8.39
2023-10-06T06:23:47.425Z,8.40
2023-10-06T06:26:18.092Z,8.42
2023-10-06T06:28:45.801Z,8.45
2023-10-06T06:31:19.585Z,8.50
2023-10-06T06:33:57.055Z,8.46
2023-10-06T06:36:23.586Z,8.56
2023-10-06T06:38:50.624Z,8.62
2023-10-06T06:41:17.103Z,8.69
2023-10-06T06:43:46.897Z,8.81
2023-10-06T06:46:14.310Z,8.93
2023-10-06T06:48:40.894Z,9.13
2023-10-06T06:51:07.348Z,9.19
2023-10-06T06:53:33.871Z,9.31
2023-10-06T06:56:00.460Z,9.42
2023-10-06T06:58:27.399Z,9.53
2023-10-06T07:00:54.312Z,9.69
2023-10-06T07:03:20.838Z,9.83
2023-10-06T07:05:47.250Z,9.96
2023-10-06T07:08:13.866Z,10.05
2023-10-06T07:10:47.876Z,10.16
2023-10-06T07:13:14.994Z,10.26
2023-10-06T07:15:42.651Z,10.36
2023-10-06T07:18:11.571Z,10.45
2023-10-06T07:20:38.302Z,10.55
2023-10-06T07:23:05.585Z,10.66
2023-10-06T07:25:32.447Z,10.74
2023-10-06T07:28:00.331Z,10.80
2023-10-06T07:30:35.420Z,10.86
2023-10-06T07:33:04.423Z,10.94
2023-10-06T07:35:38.278Z,10.93
2023-10-06T07:38:05.079Z,11.03
2023-10-06T07:40:32.358Z,11.09
2023-10-06T07:42:59.850Z,11.15
2023-10-06T07:45:30.226Z,11.16
2023-10-06T07:47:56.870Z,11.17
2023-10-06T07:50:23.530Z,11.33
2023-10-06T07:52:50.203Z,11.46
2023-10-06T07:55:18.032Z,11.52
2023-10-06T07:57:49.296Z,11.59
2023-10-06T08:00:28.405Z,11.73
2023-10-06T08:02:59.985Z,11.81
2023-10-06T08:05:28.682Z,11.91
2023-10-06T08:08:00.395Z,11.97
2023-10-06T08:10:31.056Z,12.05
2023-10-06T08:13:01.724Z,12.12
2023-10-06T08:15:28.828Z,12.22
2023-10-06T08:17:56.937Z,12.30
2023-10-06T08:20:26.008Z,12.38
2023-10-06T08:22:53.422Z,12.44
2023-10-06T08:25:21.103Z,12.53
2023-10-06T08:27:49.827Z,12.62
2023-10-06T08:30:17.922Z,12.68
2023-10-06T08:32:46.205Z,12.75
2023-10-06T08:35:16.669Z,12.83
2023-10-06T08:37:44.307Z,12.92
2023-10-06T08:40:18.326Z,13.01
2023-10-06T08:42:52.803Z,13.11
2023-10-06T08:45:21.960Z,13.20
2023-10-06T08:50:24.059Z,13.39
2023-10-06T08:52:52.068Z,13.49
2023-10-06T08:55:23.244Z,13.58
2023-10-06T08:57:51.816Z,13.74
2023-10-06T09:00:25.902Z,13.90
2023-10-06T09:02:55.636Z,14.02
2023-10-06T09:05:23.424Z,14.13
2023-10-06T09:07:59.279Z,14.24
2023-10-06T09:10:27.742Z,14.38
2023-10-06T09:13:06.957Z,14.53
2023-10-06T09:15:36.836Z,14.62
2023-10-06T09:18:28.250Z,14.72
2023-10-06T09:20:58.049Z,14.85
2023-10-06T09:23:37.749Z,15.01
2023-10-06T09:26:08.281Z,15.22
2023-10-06T09:28:35.624Z,15.42
2023-10-06T09:31:06.803Z,15.58
2023-10-06T09:33:36.457Z,15.75
2023-10-06T09:36:08.593Z,15.93
2023-10-06T09:38:40.172Z,16.14
2023-10-06T09:41:08.697Z,16.31
2023-10-06T09:43:37.122Z,16.48
2023-10-06T09:46:17.206Z,16.62
2023-10-06T09:48:44.261Z,16.78
2023-10-06T09:51:12.188Z,16.90
2023-10-06T09:53:40.150Z,17.01
2023-10-06T09:56:12.643Z,16.94
2023-10-06T09:58:42.141Z,16.97
2023-10-06T10:01:11.515Z,17.14
2023-10-06T10:03:39.555Z,17.30
2023-10-06T10:06:06.580Z,17.41
2023-10-06T10:08:35.159Z,17.52
2023-10-06T10:11:07.097Z,17.63
2023-10-06T10:14:11.462Z,17.71
2023-10-06T10:17:19.257Z,17.62
2023-10-06T10:19:47.826Z,17.63
2023-10-06T10:22:17.097Z,17.71
2023-10-06T10:27:19.398Z,18.07
2023-10-06T10:29:45.880Z,18.18
2023-10-06T10:32:24.231Z,18.39
2023-10-06T10:35:09.914Z,18.58
2023-10-06T10:37:52.849Z,18.64
2023-10-06T10:40:44.952Z,18.72
2023-10-06T10:43:15.501Z,18.87
2023-10-06T10:45:46.089Z,18.83
2023-10-06T10:48:15.165Z,18.92
2023-10-06T10:50:53.910Z,18.98
2023-10-06T10:53:23.969Z,19.09
2023-10-06T10:55:53.413Z,19.01
2023-10-06T10:58:50.734Z,19.02
2023-10-06T11:01:24.216Z,18.80
2023-10-06T11:04:32.203Z,18.80
2023-10-06T11:07:08.627Z,18.99
2023-10-06T11:09:38.872Z,19.30
2023-10-06T11:12:24.921Z,19.58
2023-10-06T11:14:54.008Z,19.80
2023-10-06T11:17:25.841Z,19.79
2023-10-06T11:20:26.545Z,19.83
2023-10-06T11:23:01.014Z,19.98
2023-10-06T11:25:29.860Z,20.14
2023-10-06T11:28:17.978Z,20.24
2023-10-06T11:30:44.865Z,20.19
2023-10-06T11:33:12.956Z,20.28
2023-10-06T11:35:41.790Z,20.30
2023-10-06T11:38:12.547Z,20.40
2023-10-06T11:40:39.460Z,20.37
2023-10-06T11:43:24.621Z,20.53
2023-10-06T11:46:10.607Z,20.70
2023-10-06T11:48:37.642Z,20.73
2023-10-06T11:51:09.520Z,20.82
2023-10-06T11:53:37.938Z,20.89
2023-10-06T11:56:05.834Z,20.83
2023-10-06T11:58:37.272Z,20.75
2023-10-06T12:01:04.758Z,20.85
2023-10-06T12:03:40.731Z,20.98
2023-10-06T12:06:13.588Z,21.05
2023-10-06T12:08:46.612Z,20.83
2023-10-06T12:11:13.608Z,20.96
2023-10-06T12:13:40.550Z,21.03
2023-10-06T12:16:14.932Z,20.96
2023-10-06T12:18:45.701Z,21.00
2023-10-06T12:21:15.213Z,21.01
2023-10-06T12:23:42.768Z,21.03
2023-10-06T12:26:09.365Z,20.99
2023-10-06T12:28:35.916Z,21.10
2023-10-06T12:31:03.952Z,21.13
2023-10-06T12:33:30.620Z,20.94
2023-10-06T12:35:57.106Z,21.02
2023-10-06T12:38:24.163Z,21.22
2023-10-06T12:40:50.696Z,21.19
2023-10-06T12:43:23.812Z,20.99
2023-10-06T12:45:51.215Z,21.02
2023-10-06T12:48:17.748Z,21.19
2023-10-06T12:50:44.584Z,21.36
2023-10-06T12:53:12.831Z,21.52
2023-10-06T12:55:45.781Z,21.47
2023-10-06T12:58:16.272Z,21.39
2023-10-06T13:00:43.275Z,21.24
2023-10-06T13:03:16.812Z,21.27
2023-10-06T13:05:49.682Z,21.52
2023-10-06T13:08:22.200Z,21.51
2023-10-06T13:10:49.527Z,21.56
2023-10-06T13:13:19.084Z,21.51
2023-10-06T13:15:46.639Z,21.30
2023-10-06T13:18:14.233Z,21.28
2023-10-06T13:20:41.741Z,21.17
2023-10-06T13:23:08.281Z,21.12
2023-10-06T13:25:42.340Z,21.09
2023-10-06T13:28:16.239Z,21.25
2023-10-06T13:30:47.015Z,21.35
2023-10-06T13:33:15.449Z,21.43
2023-10-06T13:35:45.157Z,21.53
2023-10-06T13:38:13.825Z,21.55
2023-10-06T13:40:41.658Z,21.49
2023-10-06T13:43:08.555Z,21.56
2023-10-06T13:45:35.633Z,21.72
2023-10-06T13:48:05.086Z,21.84
2023-10-06T13:50:32.365Z,21.57
2023-10-06T13:52:59.071Z,21.26
2023-10-06T13:55:26.056Z,21.05
2023-10-06T13:57:53.776Z,21.14
2023-10-06T14:00:30.216Z,21.18
2023-10-06T14:03:15.155Z,21.18
2023-10-06T14:05:44.619Z,21.14
2023-10-06T14:08:14.820Z,21.17
2023-10-06T14:10:42.427Z,21.04
2023-10-06T14:13:12.459Z,20.87
2023-10-06T14:15:42.802Z,20.75
2023-10-06T14:18:13.832Z,20.65
2023-10-06T14:20:42.033Z,20.59
2023-10-06T14:23:15.888Z,20.49
2023-10-06T14:25:44.048Z,20.41
2023-10-06T14:28:10.914Z,20.31
2023-10-06T14:30:42.834Z,20.23
2023-10-06T14:33:13.959Z,20.12
2023-10-06T14:36:00.183Z,20.06
2023-10-06T14:38:31.621Z,19.93
2023-10-06T14:41:17.208Z,19.86
2023-10-06T14:44:03.650Z,19.84
2023-10-06T14:46:32.292Z,19.84
2023-10-06T14:49:04.364Z,19.83
2023-10-06T14:51:31.544Z,19.85
2023-10-06T14:54:01.363Z,19.94
2023-10-06T14:56:28.221Z,20.09
2023-10-06T14:58:58.203Z,20.13
2023-10-06T15:01:26.243Z,20.15
2023-10-06T15:03:53.515Z,20.13
2023-10-06T15:06:20.407Z,20.19
2023-10-06T15:08:49.214Z,20.25
2023-10-06T15:11:18.044Z,20.28
2023-10-06T15:13:48.155Z,20.17
2023-10-06T15:16:17.322Z,20.01
2023-10-06T15:18:47.359Z,19.80
2023-10-06T15:21:16.009Z,19.68
2023-10-06T15:23:49.713Z,19.62
2023-10-06T15:26:25.447Z,19.52
2023-10-06T15:28:52.107Z,19.39
2023-10-06T15:31:21.558Z,19.32
2023-10-06T15:33:48.355Z,19.30
2023-10-06T15:36:18.238Z,19.28
2023-10-06T15:38:45.909Z,19.23
2023-10-06T15:41:13.966Z,19.21
2023-10-06T15:43:48.177Z,19.17
2023-10-06T15:46:16.407Z,19.12
2023-10-06T15:48:43.378Z,19.09
2023-10-06T15:51:19.713Z,19.03
2023-10-06T15:53:46.239Z,18.99
2023-10-06T15:56:15.009Z,18.93
2023-10-06T15:58:42.855Z,18.88
2023-10-06T16:01:10.593Z,18.83
2023-10-06T16:03:39.730Z,18.78
2023-10-06T16:06:07.183Z,18.73
2023-10-06T16:08:33.642Z,18.66
2023-10-06T16:11:01.829Z,18.60
2023-10-06T16:13:28.913Z,18.55
2023-10-06T16:16:10.552Z,18.48
2023-10-06T16:18:38.108Z,18.42
2023-10-06T16:21:07.444Z,18.35
2023-10-06T16:23:34.047Z,18.29
2023-10-06T16:26:00.613Z,18.21
2023-10-06T16:28:27.199Z,18.13
2023-10-06T16:30:57.719Z,18.07
2023-10-06T16:33:24.787Z,18.00
2023-10-06T16:35:51.346Z,17.95
2023-10-06T16:38:18.083Z,17.90
2023-10-06T16:40:44.588Z,17.84
2023-10-06T16:43:11.302Z,17.80
2023-10-06T16:45:37.886Z,17.74
2023-10-06T16:48:05.296Z,17.69
2023-10-06T16:50:32.499Z,17.63
2023-10-06T16:52:59.409Z,17.60
2023-10-06T16:55:26.031Z,17.54
2023-10-06T16:58:00.208Z,17.49
2023-10-06T17:00:26.779Z,17.45
2023-10-06T17:02:53.421Z,17.41
2023-10-06T17:05:23.113Z,17.38
2023-10-06T17:07:52.402Z,17.36
2023-10-06T17:10:20.528Z,17.33
2023-10-06T17:12:46.967Z,17.27
2023-10-06T17:15:13.527Z,17.22
2023-10-06T17:17:47.122Z,17.15
2023-10-06T17:20:18.498Z,17.09
2023-10-06T17:22:46.132Z,17.05
2023-10-06T17:25:17.218Z,17.03
2023-10-06T17:27:45.260Z,16.98
2023-10-06T17:30:13.598Z,16.92
2023-10-06T17:32:40.213Z,16.89
2023-10-06T17:35:08.501Z,16.89
2023-10-06T17:37:35.092Z,16.88
2023-10-06T17:40:01.952Z,16.85
2023-10-06T17:42:31.012Z,16.80
2023-10-06T17:44:58.138Z,16.77
2023-10-06T17:49:52.239Z,16.68
2023-10-06T17:52:19.052Z,16.68
2023-10-06T17:54:45.590Z,16.64
2023-10-06T17:57:12.067Z,16.61
2023-10-06T17:59:39.307Z,16.55
2023-10-06T18:02:06.727Z,16.51
2023-10-06T18:04:34.428Z,16.47
2023-10-06T18:07:00.946Z,16.43
2023-10-06T18:09:28.112Z,16.38
2023-10-06T18:12:08.480Z,16.35
2023-10-06T18:14:42.000Z,16.29
2023-10-06T18:17:08.994Z,16.23
2023-10-06T18:19:36.414Z,16.17
2023-10-06T18:22:03.337Z,16.08
2023-10-06T18:24:30.221Z,16.06
2023-10-06T18:26:57.598Z,16.00
2023-10-06T18:29:26.132Z,15.93
2023-10-06T18:31:57.183Z,15.87
2023-10-06T18:34:24.114Z,15.80
2023-10-06T18:36:51.102Z,15.75
2023-10-06T18:39:21.854Z,15.71
2023-10-06T18:41:48.488Z,15.68
2023-10-06T18:44:17.712Z,15.64
2023-10-06T18:46:47.502Z,15.57
2023-10-06T18:49:16.050Z,15.50
2023-10-06T18:51:43.445Z,15.42
2023-10-06T18:54:11.122Z,15.35
2023-10-06T18:56:40.443Z,15.30
2023-10-06T18:59:06.975Z,15.22
2023-10-06T19:01:36.707Z,15.16
2023-10-06T19:04:10.597Z,15.11
2023-10-06T19:06:41.887Z,15.09
2023-10-06T19:09:11.827Z,15.08
2023-10-06T19:11:38.736Z,15.02
2023-10-06T19:14:06.099Z,14.93
2023-10-06T19:16:33.330Z,14.86
2023-10-06T19:19:01.073Z,14.84
2023-10-06T19:21:27.876Z,14.82
2023-10-06T19:23:55.584Z,14.78
2023-10-06T19:26:23.601Z,14.74
2023-10-06T19:28:50.507Z,14.68
2023-10-06T19:31:17.371Z,14.63
2023-10-06T19:33:48.612Z,14.57
2023-10-06T19:36:15.526Z,14.52
2023-10-06T19:38:47.410Z,14.47
2023-10-06T19:41:18.634Z,14.45
2023-10-06T19:43:45.957Z,14.40
2023-10-06T19:46:12.753Z,14.36
2023-10-06T19:48:54.890Z,14.32
2023-10-06T19:51:22.089Z,14.25
2023-10-06T19:53:48.643Z,14.19
2023-10-06T19:56:15.626Z,14.19
2023-10-06T19:58:42.120Z,14.16
2023-10-06T20:01:10.428Z,14.13
2023-10-06T20:03:38.978Z,14.09
2023-10-06T20:06:05.973Z,14.05
2023-10-06T20:08:33.428Z,14.01
2023-10-06T20:11:01.652Z,13.96
2023-10-06T20:13:29.998Z,13.91
2023-10-06T20:15:57.490Z,13.88
2023-10-06T20:18:24.052Z,13.89
2023-10-06T20:20:53.363Z,13.88
2023-10-06T20:23:20.583Z,13.85
2023-10-06T20:25:47.191Z,13.82
2023-10-06T20:28:14.145Z,13.78
2023-10-06T20:30:41.219Z,13.72
2023-10-06T20:33:07.888Z,13.70
2023-10-06T20:35:35.691Z,13.66
2023-10-06T20:38:03.095Z,13.65
2023-10-06T20:40:30.096Z,13.62
2023-10-06T20:42:58.231Z,13.60
2023-10-06T20:45:28.981Z,13.56
2023-10-06T20:47:56.718Z,13.53
2023-10-06T20:50:28.209Z,13.52
2023-10-06T20:52:55.715Z,13.53
2023-10-06T20:55:22.572Z,13.52
2023-10-06T20:57:50.873Z,13.49
2023-10-06T21:00:19.389Z,13.44
2023-10-06T21:02:47.841Z,13.41
2023-10-06T21:05:17.894Z,13.37
2023-10-06T21:07:45.123Z,13.33
2023-10-06T21:10:13.102Z,13.28
2023-10-06T21:12:43.333Z,13.20
2023-10-06T21:15:15.439Z,13.17
2023-10-06T21:17:48.409Z,13.12
2023-10-06T21:20:16.888Z,13.09
2023-10-06T21:22:44.248Z,13.11
2023-10-06T21:25:14.245Z,13.12
2023-10-06T21:27:41.333Z,13.06
2023-10-06T21:30:16.725Z,13.00
2023-10-06T21:32:44.418Z,12.96
2023-10-06T21:35:13.652Z,12.89
2023-10-06T21:37:40.913Z,12.90
2023-10-06T21:40:09.686Z,12.90
2023-10-06T21:42:36.646Z,12.88
2023-10-06T21:45:04.707Z,12.88
2023-10-06T21:47:32.393Z,12.86
2023-10-06T21:49:59.341Z,12.82
2023-10-06T21:52:27.665Z,12.83
2023-10-06T21:54:54.217Z,12.78
2023-10-06T21:57:20.652Z,12.72
2023-10-06T21:59:47.108Z,12.68
2023-10-06T22:02:14.401Z,12.65
2023-10-06T22:04:41.018Z,12.68
2023-10-06T22:07:07.659Z,12.66
2023-10-06T22:09:34.974Z,12.67
2023-10-06T22:12:01.772Z,12.64
2023-10-06T22:14:35.912Z,12.61
2023-10-06T22:17:06.507Z,12.57
2023-10-06T22:19:34.132Z,12.55
2023-10-06T22:22:01.542Z,12.52
2023-10-06T22:24:28.392Z,12.51
2023-10-06T22:26:58.509Z,12.47
2023-10-06T22:29:26.286Z,12.43
2023-10-06T22:31:53.241Z,12.41
2023-10-06T22:34:19.834Z,12.39
2023-10-06T22:36:46.419Z,12.31
2023-10-06T22:39:14.445Z,12.27
2023-10-06T22:41:41.213Z,12.26
2023-10-06T22:44:07.831Z,12.26
2023-10-06T22:46:34.472Z,12.24
2023-10-06T22:49:01.157Z,12.24
2023-10-06T22:51:27.700Z,12.21
2023-10-06T22:53:54.213Z,12.18
2023-10-06T22:56:20.676Z,12.16
2023-10-06T22:58:47.235Z,12.15
2023-10-06T23:01:15.571Z,12.13
2023-10-06T23:03:42.096Z,12.09
2023-10-06T23:06:10.031Z,12.07
2023-10-06T23:08:38.015Z,12.05
2023-10-06T23:11:05.810Z,12.02
2023-10-06T23:13:33.791Z,12.01
2023-10-06T23:16:05.249Z,11.99
2023-10-06T23:18:38.564Z,11.97
2023-10-06T23:21:08.792Z,11.95
2023-10-06T23:23:38.775Z,11.91
2023-10-06T23:26:09.823Z,11.89
2023-10-06T23:28:37.534Z,11.87
2023-10-06T23:31:04.576Z,11.85
2023-10-06T23:33:31.668Z,11.81
2023-10-06T23:35:59.665Z,11.76
2023-10-06T23:38:27.368Z,11.74
2023-10-06T23:40:54.158Z,11.68
2023-10-06T23:43:20.712Z,11.67
2023-10-06T23:45:48.284Z,11.68
2023-10-06T23:48:16.832Z,11.67
2023-10-06T23:50:53.349Z,11.64
2023-10-06T23:53:28.597Z,11.60
2023-10-06T23:56:02.362Z,11.61
2023-10-06T23:58:33.941Z,11.57
